sensor_id;sensor_type;location;lat;lon;timestamp;temperature;humidity
44573;DHT22;31762;45.420;10.072;2022-11-15T00:04:01;8.20;99.90
44573;DHT22;31762;45.420;10.072;2022-11-15T00:09:03;8.20;99.90
44573;DHT22;31762;45.420;10.072;2022-11-15T00:14:05;8.00;99.90
44573;DHT22;31762;45.420;10.072;2022-11-15T00:19:06;8.10;99.90
44573;DHT22;31762;45.420;10.072;2022-11-15T00:24:08;8.20;99.90
44573;DHT22;31762;45.420;10.072;2022-11-15T00:29:10;8.30;99.90
44573;DHT22;31762;45.420;10.072;2022-11-15T00:34:12;8.40;99.90
44573;DHT22;31762;45.420;10.072;2022-11-15T00:39:13;8.20;99.90
44573;DHT22;31762;45.420;10.072;2022-11-15T00:44:15;8.10;99.90
44573;DHT22;31762;45.420;10.072;2022-11-15T00:49:17;8.10;99.90
44573;DHT22;31762;45.420;10.072;2022-11-15T00:54:19;8.20;99.90
44573;DHT22;31762;45.420;10.072;2022-11-15T00:59:20;7.90;99.90
44573;DHT22;31762;45.420;10.072;2022-11-15T01:04:22;8.10;99.90
44573;DHT22;31762;45.420;10.072;2022-11-15T01:09:24;8.00;99.90
44573;DHT22;31762;45.420;10.072;2022-11-15T01:14:26;7.90;99.90
44573;DHT22;31762;45.420;10.072;2022-11-15T01:19:27;8.00;99.90
44573;DHT22;31762;45.420;10.072;2022-11-15T01:24:29;8.20;99.90
44573;DHT22;31762;45.420;10.072;2022-11-15T01:29:31;7.70;99.90
44573;DHT22;31762;45.420;10.072;2022-11-15T01:34:33;7.70;99.90
44573;DHT22;31762;45.420;10.072;2022-11-15T01:39:35;7.40;99.90
44573;DHT22;31762;45.420;10.072;2022-11-15T01:44:50;7.60;99.90
44573;DHT22;31762;45.420;10.072;2022-11-15T01:49:57;7.50;99.90
44573;DHT22;31762;45.420;10.072;2022-11-15T01:55:10;7.30;99.90
44573;DHT22;31762;45.420;10.072;2022-11-15T02:00:15;7.50;99.90
44573;DHT22;31762;45.420;10.072;2022-11-15T02:05:17;7.30;99.90
44573;DHT22;31762;45.420;10.072;2022-11-15T02:10:22;7.20;99.90
44573;DHT22;31762;45.420;10.072;2022-11-15T02:15:28;7.00;99.90
44573;DHT22;31762;45.420;10.072;2022-11-15T02:21:02;7.40;99.90
44573;DHT22;31762;45.420;10.072;2022-11-15T02:37:42;7.80;99.90
44573;DHT22;31762;45.420;10.072;2022-11-15T02:43:00;7.80;99.90
44573;DHT22;31762;45.420;10.072;2022-11-15T02:48:09;7.20;99.90
44573;DHT22;31762;45.420;10.072;2022-11-15T02:53:11;6.90;99.90
44573;DHT22;31762;45.420;10.072;2022-11-15T02:58:30;7.20;99.90
44573;DHT22;31762;45.420;10.072;2022-11-15T03:03:57;6.60;99.90
44573;DHT22;31762;45.420;10.072;2022-11-15T03:09:13;7.10;99.90
44573;DHT22;31762;45.420;10.072;2022-11-15T03:15:29;7.00;99.90
44573;DHT22;31762;45.420;10.072;2022-11-15T03:20:13;7.00;99.90
44573;DHT22;31762;45.420;10.072;2022-11-15T03:25:20;7.30;99.90
44573;DHT22;31762;45.420;10.072;2022-11-15T03:30:24;6.90;99.90
44573;DHT22;31762;45.420;10.072;2022-11-15T03:35:35;6.50;99.90
44573;DHT22;31762;45.420;10.072;2022-11-15T03:40:40;6.80;99.90
44573;DHT22;31762;45.420;10.072;2022-11-15T03:46:01;7.20;99.90
44573;DHT22;31762;45.420;10.072;2022-11-15T03:51:04;7.40;99.90
44573;DHT22;31762;45.420;10.072;2022-11-15T03:56:06;7.60;99.90
44573;DHT22;31762;45.420;10.072;2022-11-15T04:01:08;7.30;99.90
44573;DHT22;31762;45.420;10.072;2022-11-15T04:06:10;7.50;99.90
44573;DHT22;31762;45.420;10.072;2022-11-15T04:11:11;7.50;99.90
44573;DHT22;31762;45.420;10.072;2022-11-15T04:16:13;7.50;99.90
44573;DHT22;31762;45.420;10.072;2022-11-15T04:21:15;7.60;99.90
44573;DHT22;31762;45.420;10.072;2022-11-15T04:26:21;7.60;99.90
44573;DHT22;31762;45.420;10.072;2022-11-15T04:31:23;7.20;99.90
44573;DHT22;31762;45.420;10.072;2022-11-15T04:36:25;7.00;99.90
44573;DHT22;31762;45.420;10.072;2022-11-15T04:41:26;6.90;99.90
44573;DHT22;31762;45.420;10.072;2022-11-15T04:46:28;7.10;99.90
44573;DHT22;31762;45.420;10.072;2022-11-15T04:51:30;6.80;99.90
44573;DHT22;31762;45.420;10.072;2022-11-15T04:56:32;7.20;99.90
44573;DHT22;31762;45.420;10.072;2022-11-15T05:01:33;7.60;99.90
44573;DHT22;31762;45.420;10.072;2022-11-15T05:06:35;7.80;99.90
44573;DHT22;31762;45.420;10.072;2022-11-15T05:11:37;8.30;99.90
44573;DHT22;31762;45.420;10.072;2022-11-15T05:16:39;7.70;99.90
44573;DHT22;31762;45.420;10.072;2022-11-15T05:21:41;7.20;99.90
44573;DHT22;31762;45.420;10.072;2022-11-15T05:26:43;7.20;99.90
44573;DHT22;31762;45.420;10.072;2022-11-15T05:31:44;7.30;99.90
44573;DHT22;31762;45.420;10.072;2022-11-15T05:36:46;7.30;99.90
44573;DHT22;31762;45.420;10.072;2022-11-15T05:41:54;7.70;99.90
44573;DHT22;31762;45.420;10.072;2022-11-15T05:46:58;7.90;99.90
44573;DHT22;31762;45.420;10.072;2022-11-15T05:52:02;8.20;99.90
44573;DHT22;31762;45.420;10.072;2022-11-15T05:57:05;8.30;99.90
44573;DHT22;31762;45.420;10.072;2022-11-15T06:02:07;8.30;99.90
44573;DHT22;31762;45.420;10.072;2022-11-15T06:07:08;8.30;99.90
44573;DHT22;31762;45.420;10.072;2022-11-15T06:12:10;8.50;99.90
44573;DHT22;31762;45.420;10.072;2022-11-15T06:17:12;8.30;99.90
44573;DHT22;31762;45.420;10.072;2022-11-15T06:22:14;8.30;99.90
44573;DHT22;31762;45.420;10.072;2022-11-15T06:27:15;8.60;99.90
44573;DHT22;31762;45.420;10.072;2022-11-15T06:32:17;8.60;99.90
44573;DHT22;31762;45.420;10.072;2022-11-15T06:37:19;8.80;99.90
44573;DHT22;31762;45.420;10.072;2022-11-15T06:42:21;8.80;99.90
44573;DHT22;31762;45.420;10.072;2022-11-15T06:47:22;8.60;99.90
44573;DHT22;31762;45.420;10.072;2022-11-15T06:52:24;8.50;99.90
44573;DHT22;31762;45.420;10.072;2022-11-15T06:57:26;8.80;99.90
44573;DHT22;31762;45.420;10.072;2022-11-15T07:02:28;8.50;99.90
44573;DHT22;31762;45.420;10.072;2022-11-15T07:07:30;8.60;99.90
44573;DHT22;31762;45.420;10.072;2022-11-15T07:12:32;8.60;99.90
44573;DHT22;31762;45.420;10.072;2022-11-15T07:17:34;8.80;99.90
44573;DHT22;31762;45.420;10.072;2022-11-15T07:22:35;8.70;99.90
44573;DHT22;31762;45.420;10.072;2022-11-15T07:27:37;8.90;99.90
44573;DHT22;31762;45.420;10.072;2022-11-15T07:32:39;9.00;99.90
44573;DHT22;31762;45.420;10.072;2022-11-15T07:37:41;9.00;99.90
44573;DHT22;31762;45.420;10.072;2022-11-15T07:42:43;9.10;99.90
44573;DHT22;31762;45.420;10.072;2022-11-15T07:47:48;9.00;99.90
44573;DHT22;31762;45.420;10.072;2022-11-15T07:52:58;9.00;99.90
44573;DHT22;31762;45.420;10.072;2022-11-15T07:58:08;9.20;99.90
44573;DHT22;31762;45.420;10.072;2022-11-15T08:03:15;9.00;99.90
44573;DHT22;31762;45.420;10.072;2022-11-15T08:08:17;9.30;99.90
44573;DHT22;31762;45.420;10.072;2022-11-15T08:13:19;8.90;99.90
44573;DHT22;31762;45.420;10.072;2022-11-15T08:18:21;9.20;99.90
44573;DHT22;31762;45.420;10.072;2022-11-15T08:23:23;9.10;99.90
44573;DHT22;31762;45.420;10.072;2022-11-15T08:28:24;9.20;99.90
44573;DHT22;31762;45.420;10.072;2022-11-15T08:33:27;9.10;99.90
44573;DHT22;31762;45.420;10.072;2022-11-15T08:38:30;9.70;99.90
44573;DHT22;31762;45.420;10.072;2022-11-15T08:43:32;9.80;99.90
44573;DHT22;31762;45.420;10.072;2022-11-15T08:48:35;10.00;99.90
44573;DHT22;31762;45.420;10.072;2022-11-15T08:53:36;9.80;99.90
44573;DHT22;31762;45.420;10.072;2022-11-15T08:58:38;9.50;99.90
44573;DHT22;31762;45.420;10.072;2022-11-15T09:03:40;9.60;99.90
44573;DHT22;31762;45.420;10.072;2022-11-15T09:08:42;9.50;99.90
44573;DHT22;31762;45.420;10.072;2022-11-15T09:13:49;9.80;99.90
44573;DHT22;31762;45.420;10.072;2022-11-15T09:18:52;9.80;99.90
44573;DHT22;31762;45.420;10.072;2022-11-15T09:23:54;9.60;99.90
44573;DHT22;31762;45.420;10.072;2022-11-15T09:28:56;9.90;99.90
44573;DHT22;31762;45.420;10.072;2022-11-15T09:33:58;10.20;99.90
44573;DHT22;31762;45.420;10.072;2022-11-15T09:39:00;10.30;99.90
44573;DHT22;31762;45.420;10.072;2022-11-15T09:44:12;10.00;99.90
44573;DHT22;31762;45.420;10.072;2022-11-15T09:49:26;10.30;99.90
44573;DHT22;31762;45.420;10.072;2022-11-15T09:54:33;10.70;99.90
44573;DHT22;31762;45.420;10.072;2022-11-15T10:04:57;10.70;99.90
44573;DHT22;31762;45.420;10.072;2022-11-15T10:10:07;10.70;99.90
44573;DHT22;31762;45.420;10.072;2022-11-15T10:15:14;10.50;99.90
44573;DHT22;31762;45.420;10.072;2022-11-15T10:25:30;10.90;99.90
44573;DHT22;31762;45.420;10.072;2022-11-15T10:30:42;10.50;99.90
44573;DHT22;31762;45.420;10.072;2022-11-15T10:35:44;10.10;99.90
44573;DHT22;31762;45.420;10.072;2022-11-15T10:40:47;9.90;99.90
44573;DHT22;31762;45.420;10.072;2022-11-15T10:45:49;10.30;99.90
44573;DHT22;31762;45.420;10.072;2022-11-15T10:50:54;10.40;99.90
44573;DHT22;31762;45.420;10.072;2022-11-15T10:56:04;10.50;99.90
44573;DHT22;31762;45.420;10.072;2022-11-15T11:01:10;10.60;99.90
44573;DHT22;31762;45.420;10.072;2022-11-15T11:06:18;10.50;99.90
44573;DHT22;31762;45.420;10.072;2022-11-15T11:11:21;10.20;99.90
44573;DHT22;31762;45.420;10.072;2022-11-15T11:16:50;10.20;99.90
44573;DHT22;31762;45.420;10.072;2022-11-15T11:22:22;10.30;99.90
44573;DHT22;31762;45.420;10.072;2022-11-15T11:27:50;10.20;99.90
44573;DHT22;31762;45.420;10.072;2022-11-15T11:33:38;10.20;99.90
44573;DHT22;31762;45.420;10.072;2022-11-15T11:44:26;10.40;99.90
44573;DHT22;31762;45.420;10.072;2022-11-15T11:49:51;10.30;99.90
44573;DHT22;31762;45.420;10.072;2022-11-15T11:55:10;10.50;99.90
44573;DHT22;31762;45.420;10.072;2022-11-15T12:00:22;10.50;99.90
44573;DHT22;31762;45.420;10.072;2022-11-15T12:05:54;10.50;99.90
44573;DHT22;31762;45.420;10.072;2022-11-15T12:11:22;10.40;99.90
44573;DHT22;31762;45.420;10.072;2022-11-15T12:16:30;10.40;99.90
44573;DHT22;31762;45.420;10.072;2022-11-15T12:22:04;10.40;99.90
44573;DHT22;31762;45.420;10.072;2022-11-15T12:27:48;10.50;99.90
44573;DHT22;31762;45.420;10.072;2022-11-15T12:33:09;10.60;99.90
44573;DHT22;31762;45.420;10.072;2022-11-15T12:38:56;10.60;99.90
44573;DHT22;31762;45.420;10.072;2022-11-15T12:43:59;10.60;99.90
44573;DHT22;31762;45.420;10.072;2022-11-15T13:04:53;10.40;99.90
44573;DHT22;31762;45.420;10.072;2022-11-15T13:09:56;10.50;99.90
44573;DHT22;31762;45.420;10.072;2022-11-15T13:30:38;10.60;99.90
44573;DHT22;31762;45.420;10.072;2022-11-15T13:35:41;10.20;99.90
44573;DHT22;31762;45.420;10.072;2022-11-15T13:40:44;10.30;99.90
44573;DHT22;31762;45.420;10.072;2022-11-15T13:46:46;10.40;99.90
44573;DHT22;31762;45.420;10.072;2022-11-15T13:57:01;10.20;99.90
44573;DHT22;31762;45.420;10.072;2022-11-15T14:02:18;10.30;99.90
44573;DHT22;31762;45.420;10.072;2022-11-15T14:07:27;10.30;99.90
44573;DHT22;31762;45.420;10.072;2022-11-15T14:12:34;10.50;99.90
44573;DHT22;31762;45.420;10.072;2022-11-15T14:17:37;10.50;99.90
44573;DHT22;31762;45.420;10.072;2022-11-15T14:22:54;10.40;99.90
44573;DHT22;31762;45.420;10.072;2022-11-15T14:33:35;10.30;99.90
44573;DHT22;31762;45.420;10.072;2022-11-15T14:38:37;10.40;99.90
44573;DHT22;31762;45.420;10.072;2022-11-15T14:43:38;10.60;99.90
44573;DHT22;31762;45.420;10.072;2022-11-15T14:48:40;10.50;99.90
44573;DHT22;31762;45.420;10.072;2022-11-15T14:53:43;10.60;99.90
44573;DHT22;31762;45.420;10.072;2022-11-15T14:58:45;10.50;99.90
44573;DHT22;31762;45.420;10.072;2022-11-15T15:03:46;10.50;99.90
44573;DHT22;31762;45.420;10.072;2022-11-15T15:08:48;10.20;99.90
44573;DHT22;31762;45.420;10.072;2022-11-15T15:13:50;10.10;99.90
44573;DHT22;31762;45.420;10.072;2022-11-15T15:18:52;10.20;99.90
44573;DHT22;31762;45.420;10.072;2022-11-15T15:23:54;10.00;99.90
44573;DHT22;31762;45.420;10.072;2022-11-15T15:28:56;10.20;99.90
44573;DHT22;31762;45.420;10.072;2022-11-15T15:33:57;10.30;99.90
44573;DHT22;31762;45.420;10.072;2022-11-15T15:38:59;10.40;99.90
44573;DHT22;31762;45.420;10.072;2022-11-15T15:44:01;10.30;99.90
44573;DHT22;31762;45.420;10.072;2022-11-15T15:49:03;10.50;99.90
44573;DHT22;31762;45.420;10.072;2022-11-15T15:54:04;10.20;99.90
44573;DHT22;31762;45.420;10.072;2022-11-15T15:59:06;10.40;99.90
44573;DHT22;31762;45.420;10.072;2022-11-15T16:04:08;10.50;99.90
44573;DHT22;31762;45.420;10.072;2022-11-15T16:09:17;10.30;99.90
44573;DHT22;31762;45.420;10.072;2022-11-15T16:14:21;10.30;99.90
44573;DHT22;31762;45.420;10.072;2022-11-15T16:19:22;10.30;99.90
44573;DHT22;31762;45.420;10.072;2022-11-15T16:24:24;10.50;99.90
44573;DHT22;31762;45.420;10.072;2022-11-15T16:29:26;10.40;99.90
44573;DHT22;31762;45.420;10.072;2022-11-15T16:34:28;10.40;99.90
44573;DHT22;31762;45.420;10.072;2022-11-15T16:39:34;10.40;99.90
44573;DHT22;31762;45.420;10.072;2022-11-15T16:44:36;10.40;99.90
44573;DHT22;31762;45.420;10.072;2022-11-15T16:49:37;10.40;99.90
44573;DHT22;31762;45.420;10.072;2022-11-15T16:54:44;10.30;99.90
44573;DHT22;31762;45.420;10.072;2022-11-15T16:59:45;10.40;99.90
44573;DHT22;31762;45.420;10.072;2022-11-15T17:04:47;10.30;99.90
44573;DHT22;31762;45.420;10.072;2022-11-15T17:09:49;10.40;99.90
44573;DHT22;31762;45.420;10.072;2022-11-15T17:14:51;10.30;99.90
44573;DHT22;31762;45.420;10.072;2022-11-15T17:19:53;10.30;99.90
44573;DHT22;31762;45.420;10.072;2022-11-15T17:24:55;10.50;99.90
44573;DHT22;31762;45.420;10.072;2022-11-15T17:29:57;10.60;99.90
44573;DHT22;31762;45.420;10.072;2022-11-15T17:34:58;10.60;99.90
44573;DHT22;31762;45.420;10.072;2022-11-15T17:40:00;10.50;99.90
44573;DHT22;31762;45.420;10.072;2022-11-15T17:45:02;10.40;99.90
44573;DHT22;31762;45.420;10.072;2022-11-15T17:50:10;10.30;99.90
44573;DHT22;31762;45.420;10.072;2022-11-15T17:55:12;10.40;99.90
44573;DHT22;31762;45.420;10.072;2022-11-15T18:00:14;10.50;99.90
44573;DHT22;31762;45.420;10.072;2022-11-15T18:05:16;10.60;99.90
44573;DHT22;31762;45.420;10.072;2022-11-15T18:10:18;10.50;99.90
44573;DHT22;31762;45.420;10.072;2022-11-15T18:15:19;10.40;99.90
44573;DHT22;31762;45.420;10.072;2022-11-15T18:20:21;10.40;99.90
44573;DHT22;31762;45.420;10.072;2022-11-15T18:25:29;10.60;99.90
44573;DHT22;31762;45.420;10.072;2022-11-15T18:30:31;10.70;99.90
44573;DHT22;31762;45.420;10.072;2022-11-15T18:35:33;10.80;99.90
44573;DHT22;31762;45.420;10.072;2022-11-15T18:40:34;10.60;99.90
44573;DHT22;31762;45.420;10.072;2022-11-15T18:45:36;10.40;99.90
44573;DHT22;31762;45.420;10.072;2022-11-15T18:50:38;10.40;99.90
44573;DHT22;31762;45.420;10.072;2022-11-15T18:55:40;10.40;99.90
44573;DHT22;31762;45.420;10.072;2022-11-15T19:00:41;10.50;99.90
44573;DHT22;31762;45.420;10.072;2022-11-15T19:05:43;10.40;99.90
44573;DHT22;31762;45.420;10.072;2022-11-15T19:10:45;10.50;99.90
44573;DHT22;31762;45.420;10.072;2022-11-15T19:15:46;10.50;99.90
44573;DHT22;31762;45.420;10.072;2022-11-15T19:20:48;10.50;99.90
44573;DHT22;31762;45.420;10.072;2022-11-15T19:26:09;10.70;99.90
44573;DHT22;31762;45.420;10.072;2022-11-15T19:31:27;10.60;99.90
44573;DHT22;31762;45.420;10.072;2022-11-15T19:36:35;10.70;99.90
44573;DHT22;31762;45.420;10.072;2022-11-15T19:42:00;10.60;99.90
44573;DHT22;31762;45.420;10.072;2022-11-15T19:47:04;10.50;99.90
44573;DHT22;31762;45.420;10.072;2022-11-15T19:52:30;10.60;99.90
44573;DHT22;31762;45.420;10.072;2022-11-15T19:57:33;10.50;99.90
44573;DHT22;31762;45.420;10.072;2022-11-15T20:02:38;10.50;99.90
44573;DHT22;31762;45.420;10.072;2022-11-15T20:07:43;10.50;99.90
44573;DHT22;31762;45.420;10.072;2022-11-15T20:18:34;10.50;99.90
44573;DHT22;31762;45.420;10.072;2022-11-15T20:23:37;10.50;99.90
44573;DHT22;31762;45.420;10.072;2022-11-15T20:28:40;10.60;99.90
44573;DHT22;31762;45.420;10.072;2022-11-15T20:33:42;10.60;99.90
44573;DHT22;31762;45.420;10.072;2022-11-15T20:38:44;10.70;99.90
44573;DHT22;31762;45.420;10.072;2022-11-15T20:43:46;10.60;99.90
44573;DHT22;31762;45.420;10.072;2022-11-15T20:48:47;10.60;99.90
44573;DHT22;31762;45.420;10.072;2022-11-15T20:53:50;10.70;99.90
44573;DHT22;31762;45.420;10.072;2022-11-15T20:58:52;10.50;99.90
44573;DHT22;31762;45.420;10.072;2022-11-15T21:03:54;10.70;99.90
44573;DHT22;31762;45.420;10.072;2022-11-15T21:08:56;10.60;99.90
44573;DHT22;31762;45.420;10.072;2022-11-15T21:13:58;10.60;99.90
44573;DHT22;31762;45.420;10.072;2022-11-15T21:18:59;10.60;99.90
44573;DHT22;31762;45.420;10.072;2022-11-15T21:24:03;10.60;99.90
44573;DHT22;31762;45.420;10.072;2022-11-15T21:29:05;10.40;99.90
44573;DHT22;31762;45.420;10.072;2022-11-15T21:34:06;10.60;99.90
44573;DHT22;31762;45.420;10.072;2022-11-15T21:39:08;10.60;99.90
44573;DHT22;31762;45.420;10.072;2022-11-15T21:44:10;10.70;99.90
44573;DHT22;31762;45.420;10.072;2022-11-15T21:49:12;10.60;99.90
44573;DHT22;31762;45.420;10.072;2022-11-15T21:54:14;10.10;99.90
44573;DHT22;31762;45.420;10.072;2022-11-15T21:59:15;10.10;99.90
44573;DHT22;31762;45.420;10.072;2022-11-15T22:04:17;10.40;99.90
44573;DHT22;31762;45.420;10.072;2022-11-15T22:09:19;10.50;99.90
44573;DHT22;31762;45.420;10.072;2022-11-15T22:14:21;10.60;99.90
44573;DHT22;31762;45.420;10.072;2022-11-15T22:19:23;10.60;99.90
44573;DHT22;31762;45.420;10.072;2022-11-15T22:24:24;10.60;99.90
44573;DHT22;31762;45.420;10.072;2022-11-15T22:29:26;10.50;99.90
44573;DHT22;31762;45.420;10.072;2022-11-15T22:34:28;10.30;99.90
44573;DHT22;31762;45.420;10.072;2022-11-15T22:39:29;10.30;99.90
44573;DHT22;31762;45.420;10.072;2022-11-15T22:44:31;10.50;99.90
44573;DHT22;31762;45.420;10.072;2022-11-15T22:49:33;10.40;99.90
44573;DHT22;31762;45.420;10.072;2022-11-15T22:54:35;10.10;99.90
44573;DHT22;31762;45.420;10.072;2022-11-15T22:59:36;10.40;99.90
44573;DHT22;31762;45.420;10.072;2022-11-15T23:04:38;10.60;99.90
44573;DHT22;31762;45.420;10.072;2022-11-15T23:09:40;10.70;99.90
44573;DHT22;31762;45.420;10.072;2022-11-15T23:14:42;10.40;99.90
44573;DHT22;31762;45.420;10.072;2022-11-15T23:19:43;10.30;99.90
44573;DHT22;31762;45.420;10.072;2022-11-15T23:24:45;10.10;99.90
44573;DHT22;31762;45.420;10.072;2022-11-15T23:29:47;10.10;99.90
44573;DHT22;31762;45.420;10.072;2022-11-15T23:34:49;10.20;99.90
44573;DHT22;31762;45.420;10.072;2022-11-15T23:39:51;10.40;99.90
44573;DHT22;31762;45.420;10.072;2022-11-15T23:44:52;10.30;99.90
44573;DHT22;31762;45.420;10.072;2022-11-15T23:49:54;10.40;99.90
44573;DHT22;31762;45.420;10.072;2022-11-15T23:54:56;10.50;99.90
44573;DHT22;31762;45.420;10.072;2022-11-15T23:59:57;10.20;99.90
